CheckWX is a tool to help pilots better visualize weather data.  It is not intended as a substitute for an official pre-flight weather briefing.

19:59:11 UTC

KSLI TAF
Los Alamitos AAF Airport
Los Alamitos, California, USA
TAF AMD KSLI 251721Z 2517/2619 VRB06KT 9999 BKN015 QNH2985INS BECMG 2521/2522 VRB06KT 9999 SCT018 QNH2986INS BECMG 2604/2605 VRB06KT 9999 BKN018 QNH2988INS BECMG 2615/2616 VRB06KT 9999 SCT020 QNH2993INS TX21/2522Z TN16/2613Z

Jun-25@
17:00 UTC

Jun-25 @ 17:00 UTC

Jun-25@
21:00 UTC

Jun-25 @ 21:00 UTC

TAF AMD KSLI 251721Z 2517/2619 VRB06KT 9999 BKN015 QNH2985INS
Wind
  • Variable at 6 KTS
Cloud Levels
  • Broken at 1,500' AGL

Jun-25@
21:00 UTC

Jun-25 @ 21:00 UTC

Jun-26@
04:00 UTC

Jun-26 @ 04:00 UTC

BECMG 2521/2522 VRB06KT 9999 SCT018 QNH2986INS

Becoming

Becoming Conditions expected by Tue, Jun 25, 2019 @ 22:00 UTC

Wind
  • Variable at 6 KTS
Cloud Levels
  • Scattered at 1,800' AGL

Jun-26@
04:00 UTC

Jun-26 @ 04:00 UTC

Jun-26@
15:00 UTC

Jun-26 @ 15:00 UTC

BECMG 2604/2605 VRB06KT 9999 BKN018 QNH2988INS

Becoming

Becoming Conditions expected by Wed, Jun 26, 2019 @ 05:00 UTC

Wind
  • Variable at 6 KTS
Cloud Levels
  • Broken at 1,800' AGL

Jun-26@
15:00 UTC

Jun-26 @ 15:00 UTC

Jun-26@
19:00 UTC

Jun-26 @ 19:00 UTC

BECMG 2615/2616 VRB06KT 9999 SCT020 QNH2993INS TX21/2522Z TN16/2613Z

Becoming

Becoming Conditions expected by Wed, Jun 26, 2019 @ 16:00 UTC

Wind
  • Variable at 6 KTS
Cloud Levels
  • Scattered at 2,000' AGL